Airfield :







YOU CAN JOIN US ON...

 
LOGIN :

Register | Disclaimer

   EN    FR    IT 

 









Legend :    VFR   Marginal VFR   IFR   Intensive IFR   Very Intensive IFR
Visi :
Ceiling :
>= 8 km
>= 3000ft
5 to 8 km
1000 to 3000 ft
1500m to 5 km
500 to 1000 ft
800 to 1500m
200 to 500 ft
< 800m
< 200 ft
Symbols :   Thunderstorms  Fog  Heavy snow  Heavy precipitations  Wind > 20 kt






- Airport Elevation : 1709 ft
- IATA code : YKL


CYKL - Schefferville

CURRENT METAR :
  • 261800Z AUTO 30017KT 9SM OVC030 06/M01 A3000 RMK SLP181

EXPIRED METARs :
  • 261700Z AUTO 29015G21KT 270V330 9SM BKN026 OVC040 05/M01 A2997 RMK SLP171
  • 261611Z AUTO 30011G20KT 9SM SCT024 SCT028 OVC035 04/M01 A2995 RMK SLP165
  • 261559Z AUTO 31011G19KT 270V340 9SM BKN024 OVC029 04/M01 A2995 RMK SLP165

TAF TAF CYKL
Valid from the 26 at 14:00 until the 27 at 02:00 UTC


261332Z 2614/2702 30015G25KT P6SM BKN020
TEMPO 2614/2702 BKN025
BECMG 2700/2702 31008G18KT RMK FCST BASED ON AUTO OBS. NXT FCST BY 262000Z
CZUL FIR / North America



MET'MAP, your aeronautical weather chart ! - Copyright ORBIFLY December 2007 - Disclaimer

ORBIFLY MET'MAP TEAM :

Programming & Development : Alexandra Zaïnal
Concept & original design : Baudouin d'Aumeries
Assistance for programming : Marc-Olivier Méhu
Technical & hardware support : Manuel Goepfert

Contact : metmap@orbifly.com




SOURCES & CREDITS :

   NOAA